sensor_id;sensor_type;location;lat;lon;timestamp;pressure;altitude;pressure_sealevel;temperature;humidity
20119;BME280;10220;42.716;23.306;2024-02-28T00:01:26;95620.63;;;9.29;100.00
20119;BME280;10220;42.716;23.306;2024-02-28T00:03:52;95609.75;;;9.19;100.00
20119;BME280;10220;42.716;23.306;2024-02-28T00:06:17;95606.91;;;9.29;100.00
20119;BME280;10220;42.716;23.306;2024-02-28T00:08:52;95615.63;;;9.28;100.00
20119;BME280;10220;42.716;23.306;2024-02-28T00:11:19;95603.09;;;8.89;100.00
20119;BME280;10220;42.716;23.306;2024-02-28T00:13:45;95606.19;;;8.99;100.00
20119;BME280;10220;42.716;23.306;2024-02-28T00:16:10;95618.91;;;9.01;100.00
20119;BME280;10220;42.716;23.306;2024-02-28T00:18:37;95609.28;;;9.09;100.00
20119;BME280;10220;42.716;23.306;2024-02-28T00:21:02;95618.56;;;9.04;100.00
20119;BME280;10220;42.716;23.306;2024-02-28T00:23:29;95622.00;;;8.76;100.00
20119;BME280;10220;42.716;23.306;2024-02-28T00:25:55;95604.44;;;8.71;100.00
20119;BME280;10220;42.716;23.306;2024-02-28T00:28:20;95601.91;;;8.92;100.00
20119;BME280;10220;42.716;23.306;2024-02-28T00:30:46;95622.09;;;8.82;100.00
20119;BME280;10220;42.716;23.306;2024-02-28T00:33:12;95624.09;;;8.86;100.00
20119;BME280;10220;42.716;23.306;2024-02-28T00:35:39;95624.00;;;8.94;100.00
20119;BME280;10220;42.716;23.306;2024-02-28T00:38:05;95614.03;;;8.91;100.00
20119;BME280;10220;42.716;23.306;2024-02-28T00:40:30;95604.81;;;8.68;100.00
20119;BME280;10220;42.716;23.306;2024-02-28T00:42:57;95612.75;;;8.67;100.00
20119;BME280;10220;42.716;23.306;2024-02-28T00:45:23;95616.50;;;8.64;100.00
20119;BME280;10220;42.716;23.306;2024-02-28T00:47:48;95594.72;;;8.23;100.00
20119;BME280;10220;42.716;23.306;2024-02-28T00:50:14;95613.13;;;8.49;100.00
20119;BME280;10220;42.716;23.306;2024-02-28T00:52:40;95599.84;;;8.67;100.00
20119;BME280;10220;42.716;23.306;2024-02-28T00:55:06;95612.75;;;8.67;100.00
20119;BME280;10220;42.716;23.306;2024-02-28T00:57:32;95576.56;;;8.31;100.00
20119;BME280;10220;42.716;23.306;2024-02-28T01:00:01;95599.94;;;8.59;100.00
20119;BME280;10220;42.716;23.306;2024-02-28T01:02:26;95610.28;;;8.44;100.00
20119;BME280;10220;42.716;23.306;2024-02-28T01:04:52;95622.91;;;8.68;100.00
20119;BME280;10220;42.716;23.306;2024-02-28T01:07:17;95627.38;;;8.60;100.00
20119;BME280;10220;42.716;23.306;2024-02-28T01:09:45;95632.59;;;8.80;100.00
20119;BME280;10220;42.716;23.306;2024-02-28T01:12:14;95620.31;;;8.68;100.00
20119;BME280;10220;42.716;23.306;2024-02-28T01:14:39;95620.59;;;8.73;100.00
20119;BME280;10220;42.716;23.306;2024-02-28T01:17:05;95603.28;;;8.74;100.00
20119;BME280;10220;42.716;23.306;2024-02-28T01:19:30;95616.84;;;8.61;100.00
20119;BME280;10220;42.716;23.306;2024-02-28T01:21:56;95630.94;;;8.59;100.00
20119;BME280;10220;42.716;23.306;2024-02-28T01:24:22;95603.59;;;8.50;100.00
20119;BME280;10220;42.716;23.306;2024-02-28T01:26:48;95591.94;;;8.54;100.00
20119;BME280;10220;42.716;23.306;2024-02-28T01:29:13;95623.75;;;8.75;100.00
20119;BME280;10220;42.716;23.306;2024-02-28T01:31:39;95601.81;;;8.50;100.00
20119;BME280;10220;42.716;23.306;2024-02-28T01:34:05;95625.03;;;8.65;100.00
20119;BME280;10220;42.716;23.306;2024-02-28T01:36:30;95627.97;;;8.62;100.00
20119;BME280;10220;42.716;23.306;2024-02-28T01:38:56;95629.78;;;8.32;100.00
20119;BME280;10220;42.716;23.306;2024-02-28T01:41:21;95639.75;;;8.35;100.00
20119;BME280;10220;42.716;23.306;2024-02-28T01:43:47;95624.06;;;8.37;100.00
20119;BME280;10220;42.716;23.306;2024-02-28T01:48:47;95626.13;;;8.56;100.00
20119;BME280;10220;42.716;23.306;2024-02-28T01:51:13;95616.78;;;8.40;100.00
20119;BME280;10220;42.716;23.306;2024-02-28T01:53:38;95634.47;;;8.58;100.00
20119;BME280;10220;42.716;23.306;2024-02-28T01:56:05;95642.22;;;8.43;100.00
20119;BME280;10220;42.716;23.306;2024-02-28T01:58:31;95642.13;;;8.22;100.00
20119;BME280;10220;42.716;23.306;2024-02-28T02:00:58;95645.88;;;8.34;100.00
20119;BME280;10220;42.716;23.306;2024-02-28T02:03:25;95646.50;;;8.22;100.00
20119;BME280;10220;42.716;23.306;2024-02-28T02:05:50;95604.59;;;7.83;100.00
20119;BME280;10220;42.716;23.306;2024-02-28T02:08:16;95637.78;;;8.01;100.00
20119;BME280;10220;42.716;23.306;2024-02-28T02:10:41;95643.28;;;8.20;100.00
20119;BME280;10220;42.716;23.306;2024-02-28T02:13:24;95638.81;;;8.14;100.00
20119;BME280;10220;42.716;23.306;2024-02-28T02:15:50;95638.34;;;8.11;100.00
20119;BME280;10220;42.716;23.306;2024-02-28T02:18:15;95625.75;;;8.16;100.00
20119;BME280;10220;42.716;23.306;2024-02-28T02:20:44;95623.63;;;8.33;100.00
20119;BME280;10220;42.716;23.306;2024-02-28T02:23:10;95626.72;;;8.58;100.00
20119;BME280;10220;42.716;23.306;2024-02-28T02:26:25;95604.59;;;8.34;100.00
20119;BME280;10220;42.716;23.306;2024-02-28T02:43:09;95602.63;;;8.51;100.00
20119;BME280;10220;42.716;23.306;2024-02-28T03:12:42;95630.91;;;8.73;100.00
20119;BME280;10220;42.716;23.306;2024-02-28T03:15:11;95605.72;;;8.61;100.00
20119;BME280;10220;42.716;23.306;2024-02-28T03:17:36;95640.59;;;8.85;100.00
20119;BME280;10220;42.716;23.306;2024-02-28T03:20:02;95619.34;;;8.69;100.00
20119;BME280;10220;42.716;23.306;2024-02-28T03:22:28;95635.00;;;8.82;100.00
20119;BME280;10220;42.716;23.306;2024-02-28T03:24:54;95643.72;;;8.81;100.00
20119;BME280;10220;42.716;23.306;2024-02-28T03:27:19;95617.53;;;8.70;100.00
20119;BME280;10220;42.716;23.306;2024-02-28T03:29:45;95643.53;;;8.82;100.00
20119;BME280;10220;42.716;23.306;2024-02-28T03:32:11;95623.19;;;8.59;100.00
20119;BME280;10220;42.716;23.306;2024-02-28T03:34:36;95640.50;;;8.65;100.00
20119;BME280;10220;42.716;23.306;2024-02-28T03:37:02;95625.41;;;8.47;100.00
20119;BME280;10220;42.716;23.306;2024-02-28T03:39:27;95655.03;;;8.51;100.00
20119;BME280;10220;42.716;23.306;2024-02-28T03:41:53;95648.03;;;8.45;100.00
20119;BME280;10220;42.716;23.306;2024-02-28T03:44:18;95633.09;;;8.04;100.00
20119;BME280;10220;42.716;23.306;2024-02-28T03:46:44;95645.69;;;8.21;100.00
20119;BME280;10220;42.716;23.306;2024-02-28T03:49:10;95653.88;;;8.39;100.00
20119;BME280;10220;42.716;23.306;2024-02-28T03:51:41;95651.84;;;8.49;100.00
20119;BME280;10220;42.716;23.306;2024-02-28T03:54:07;95640.00;;;8.40;100.00
20119;BME280;10220;42.716;23.306;2024-02-28T03:56:33;95651.94;;;8.56;100.00
20119;BME280;10220;42.716;23.306;2024-02-28T03:59:18;95636.38;;;8.49;100.00
20119;BME280;10220;42.716;23.306;2024-02-28T04:01:44;95657.34;;;8.46;100.00
20119;BME280;10220;42.716;23.306;2024-02-28T04:04:09;95640.28;;;8.45;100.00
20119;BME280;10220;42.716;23.306;2024-02-28T04:06:35;95645.69;;;8.50;100.00
20119;BME280;10220;42.716;23.306;2024-02-28T04:09:00;95656.28;;;8.55;100.00
20119;BME280;10220;42.716;23.306;2024-02-28T04:11:26;95643.09;;;8.50;100.00
20119;BME280;10220;42.716;23.306;2024-02-28T04:13:51;95646.16;;;8.54;100.00
20119;BME280;10220;42.716;23.306;2024-02-28T04:16:17;95652.72;;;8.71;100.00
20119;BME280;10220;42.716;23.306;2024-02-28T04:18:42;95644.69;;;8.80;100.00
20119;BME280;10220;42.716;23.306;2024-02-28T04:21:08;95651.75;;;8.72;100.00
20119;BME280;10220;42.716;23.306;2024-02-28T04:23:34;95638.03;;;8.57;100.00
20119;BME280;10220;42.716;23.306;2024-02-28T04:25:59;95641.69;;;8.48;100.00
20119;BME280;10220;42.716;23.306;2024-02-28T04:28:32;95647.31;;;8.37;100.00
20119;BME280;10220;42.716;23.306;2024-02-28T04:30:58;95656.56;;;7.95;100.00
20119;BME280;10220;42.716;23.306;2024-02-28T04:33:23;95654.69;;;7.89;100.00
20119;BME280;10220;42.716;23.306;2024-02-28T04:35:49;95650.28;;;8.12;100.00
20119;BME280;10220;42.716;23.306;2024-02-28T04:38:14;95640.75;;;8.12;100.00
20119;BME280;10220;42.716;23.306;2024-02-28T04:40:40;95657.38;;;8.10;100.00
20119;BME280;10220;42.716;23.306;2024-02-28T04:43:05;95639.31;;;8.10;100.00
20119;BME280;10220;42.716;23.306;2024-02-28T04:45:31;95652.47;;;7.63;100.00
20119;BME280;10220;42.716;23.306;2024-02-28T04:47:56;95659.16;;;7.95;100.00
20119;BME280;10220;42.716;23.306;2024-02-28T04:50:23;95645.44;;;7.94;100.00
20119;BME280;10220;42.716;23.306;2024-02-28T04:52:48;95668.66;;;7.94;100.00
20119;BME280;10220;42.716;23.306;2024-02-28T04:55:14;95644.31;;;8.11;100.00
20119;BME280;10220;42.716;23.306;2024-02-28T04:57:40;95671.16;;;8.02;100.00
20119;BME280;10220;42.716;23.306;2024-02-28T05:00:06;95660.09;;;8.16;100.00
20119;BME280;10220;42.716;23.306;2024-02-28T05:02:33;95653.41;;;8.21;100.00
20119;BME280;10220;42.716;23.306;2024-02-28T05:04:59;95657.25;;;7.89;100.00
20119;BME280;10220;42.716;23.306;2024-02-28T05:07:24;95665.06;;;8.18;100.00
20119;BME280;10220;42.716;23.306;2024-02-28T05:09:50;95671.69;;;8.34;100.00
20119;BME280;10220;42.716;23.306;2024-02-28T05:12:15;95670.06;;;8.48;100.00
20119;BME280;10220;42.716;23.306;2024-02-28T05:14:41;95666.53;;;8.49;100.00
20119;BME280;10220;42.716;23.306;2024-02-28T05:17:06;95655.13;;;8.43;100.00
20119;BME280;10220;42.716;23.306;2024-02-28T05:19:32;95675.09;;;8.49;100.00
20119;BME280;10220;42.716;23.306;2024-02-28T05:21:57;95667.56;;;8.25;100.00
20119;BME280;10220;42.716;23.306;2024-02-28T05:24:23;95668.06;;;8.07;100.00
20119;BME280;10220;42.716;23.306;2024-02-28T05:26:48;95680.31;;;7.68;100.00
20119;BME280;10220;42.716;23.306;2024-02-28T05:29:14;95683.34;;;7.71;100.00
20119;BME280;10220;42.716;23.306;2024-02-28T05:31:39;95686.19;;;7.99;100.00
20119;BME280;10220;42.716;23.306;2024-02-28T05:34:05;95690.31;;;7.85;100.00
20119;BME280;10220;42.716;23.306;2024-02-28T05:36:30;95706.44;;;7.87;100.00
20119;BME280;10220;42.716;23.306;2024-02-28T05:38:59;95701.19;;;7.95;100.00
20119;BME280;10220;42.716;23.306;2024-02-28T05:41:25;95699.19;;;7.83;100.00
20119;BME280;10220;42.716;23.306;2024-02-28T05:43:51;95715.78;;;7.88;100.00
20119;BME280;10220;42.716;23.306;2024-02-28T05:46:17;95723.03;;;7.85;100.00
20119;BME280;10220;42.716;23.306;2024-02-28T05:49:03;95702.66;;;7.75;100.00
20119;BME280;10220;42.716;23.306;2024-02-28T05:51:28;95724.28;;;8.11;100.00
20119;BME280;10220;42.716;23.306;2024-02-28T05:53:54;95715.94;;;8.09;100.00
20119;BME280;10220;42.716;23.306;2024-02-28T05:56:19;95718.75;;;8.22;100.00
20119;BME280;10220;42.716;23.306;2024-02-28T05:58:46;95731.03;;;8.34;100.00
20119;BME280;10220;42.716;23.306;2024-02-28T06:01:15;95698.03;;;8.30;100.00
20119;BME280;10220;42.716;23.306;2024-02-28T06:03:42;95711.47;;;8.69;100.00
20119;BME280;10220;42.716;23.306;2024-02-28T06:06:08;95735.06;;;9.09;100.00
20119;BME280;10220;42.716;23.306;2024-02-28T06:08:34;95744.22;;;9.40;100.00
20119;BME280;10220;42.716;23.306;2024-02-28T06:11:01;95728.00;;;9.32;100.00
20119;BME280;10220;42.716;23.306;2024-02-28T06:13:27;95735.88;;;9.59;100.00
20119;BME280;10220;42.716;23.306;2024-02-28T06:15:54;95736.72;;;10.01;100.00
20119;BME280;10220;42.716;23.306;2024-02-28T06:18:20;95733.63;;;9.91;100.00
20119;BME280;10220;42.716;23.306;2024-02-28T06:20:48;95752.16;;;9.94;100.00
20119;BME280;10220;42.716;23.306;2024-02-28T06:23:13;95740.19;;;10.08;100.00
20119;BME280;10220;42.716;23.306;2024-02-28T06:25:39;95747.69;;;10.24;100.00
20119;BME280;10220;42.716;23.306;2024-02-28T06:28:04;95748.09;;;10.21;100.00
20119;BME280;10220;42.716;23.306;2024-02-28T06:30:32;95745.22;;;9.74;100.00
20119;BME280;10220;42.716;23.306;2024-02-28T06:33:01;95722.59;;;9.83;100.00
20119;BME280;10220;42.716;23.306;2024-02-28T06:35:27;95744.31;;;10.23;100.00
20119;BME280;10220;42.716;23.306;2024-02-28T06:37:53;95742.91;;;10.21;100.00
20119;BME280;10220;42.716;23.306;2024-02-28T06:40:19;95755.28;;;10.04;100.00
20119;BME280;10220;42.716;23.306;2024-02-28T06:42:45;95750.38;;;10.09;100.00
20119;BME280;10220;42.716;23.306;2024-02-28T06:45:10;95737.94;;;10.47;100.00
20119;BME280;10220;42.716;23.306;2024-02-28T06:47:38;95731.38;;;10.23;100.00
20119;BME280;10220;42.716;23.306;2024-02-28T06:50:05;95751.69;;;10.47;100.00
20119;BME280;10220;42.716;23.306;2024-02-28T06:52:31;95753.56;;;10.59;100.00
20119;BME280;10220;42.716;23.306;2024-02-28T06:55:15;95709.66;;;10.24;100.00
20119;BME280;10220;42.716;23.306;2024-02-28T06:57:41;95758.97;;;10.64;100.00
20119;BME280;10220;42.716;23.306;2024-02-28T07:00:10;95723.97;;;10.48;100.00
20119;BME280;10220;42.716;23.306;2024-02-28T07:02:44;95753.81;;;10.98;100.00
20119;BME280;10220;42.716;23.306;2024-02-28T07:05:10;95748.25;;;10.95;100.00
20119;BME280;10220;42.716;23.306;2024-02-28T07:07:36;95730.50;;;10.98;100.00
20119;BME280;10220;42.716;23.306;2024-02-28T07:10:05;95727.28;;;10.90;100.00
20119;BME280;10220;42.716;23.306;2024-02-28T07:12:30;95716.81;;;10.77;100.00
20119;BME280;10220;42.716;23.306;2024-02-28T07:14:59;95730.28;;;11.00;100.00
20119;BME280;10220;42.716;23.306;2024-02-28T07:17:25;95703.56;;;10.93;100.00
20119;BME280;10220;42.716;23.306;2024-02-28T07:19:51;95753.44;;;11.41;100.00
20119;BME280;10220;42.716;23.306;2024-02-28T07:22:17;95753.66;;;11.46;100.00
20119;BME280;10220;42.716;23.306;2024-02-28T07:38:41;95758.13;;;11.18;100.00
20119;BME280;10220;42.716;23.306;2024-02-28T07:41:06;95762.41;;;11.32;100.00
20119;BME280;10220;42.716;23.306;2024-02-28T07:43:32;95760.72;;;11.18;100.00
20119;BME280;10220;42.716;23.306;2024-02-28T07:46:06;95744.28;;;11.39;100.00
20119;BME280;10220;42.716;23.306;2024-02-28T07:48:32;95746.16;;;11.58;100.00
20119;BME280;10220;42.716;23.306;2024-02-28T07:50:57;95761.19;;;11.81;100.00
20119;BME280;10220;42.716;23.306;2024-02-28T08:10:40;95696.75;;;12.24;100.00
20119;BME280;10220;42.716;23.306;2024-02-28T08:13:18;95738.31;;;12.82;100.00
20119;BME280;10220;42.716;23.306;2024-02-28T08:16:08;95697.53;;;12.56;100.00
20119;BME280;10220;42.716;23.306;2024-02-28T08:25:46;95734.13;;;13.50;100.00
20119;BME280;10220;42.716;23.306;2024-02-28T08:41:51;95718.31;;;13.01;100.00
20119;BME280;10220;42.716;23.306;2024-02-28T08:44:28;95725.81;;;13.35;100.00
20119;BME280;10220;42.716;23.306;2024-02-28T08:46:57;95724.00;;;13.36;100.00
20119;BME280;10220;42.716;23.306;2024-02-28T08:49:22;95735.78;;;13.45;100.00
20119;BME280;10220;42.716;23.306;2024-02-28T08:51:48;95715.78;;;13.76;100.00
20119;BME280;10220;42.716;23.306;2024-02-28T08:54:13;95720.00;;;14.14;100.00
20119;BME280;10220;42.716;23.306;2024-02-28T08:56:39;95706.91;;;14.20;100.00
20119;BME280;10220;42.716;23.306;2024-02-28T08:59:04;95722.03;;;14.12;100.00
20119;BME280;10220;42.716;23.306;2024-02-28T09:01:30;95727.34;;;14.48;99.41
20119;BME280;10220;42.716;23.306;2024-02-28T09:03:55;95721.41;;;14.41;98.43
20119;BME280;10220;42.716;23.306;2024-02-28T09:06:21;95720.50;;;14.29;99.57
20119;BME280;10220;42.716;23.306;2024-02-28T09:08:46;95702.94;;;14.42;99.43
20119;BME280;10220;42.716;23.306;2024-02-28T09:11:12;95725.31;;;14.25;100.00
20119;BME280;10220;42.716;23.306;2024-02-28T09:13:37;95740.34;;;14.54;99.73
20119;BME280;10220;42.716;23.306;2024-02-28T09:16:03;95732.13;;;14.57;100.00
20119;BME280;10220;42.716;23.306;2024-02-28T09:18:29;95708.94;;;14.67;97.73
20119;BME280;10220;42.716;23.306;2024-02-28T09:20:54;95736.47;;;14.87;97.46
20119;BME280;10220;42.716;23.306;2024-02-28T09:23:20;95733.44;;;14.66;99.31
20119;BME280;10220;42.716;23.306;2024-02-28T09:25:46;95721.97;;;14.91;96.07
20119;BME280;10220;42.716;23.306;2024-02-28T09:28:14;95717.47;;;14.80;95.65
20119;BME280;10220;42.716;23.306;2024-02-28T09:30:41;95732.94;;;15.00;96.06
20119;BME280;10220;42.716;23.306;2024-02-28T09:33:08;95706.44;;;14.78;96.26
20119;BME280;10220;42.716;23.306;2024-02-28T09:35:37;95705.38;;;14.86;97.04
20119;BME280;10220;42.716;23.306;2024-02-28T09:38:03;95698.94;;;14.88;91.80
20119;BME280;10220;42.716;23.306;2024-02-28T09:40:28;95708.59;;;14.64;92.73
20119;BME280;10220;42.716;23.306;2024-02-28T09:43:02;95706.59;;;14.10;98.63
20119;BME280;10220;42.716;23.306;2024-02-28T09:45:31;95693.56;;;14.59;97.28
20119;BME280;10220;42.716;23.306;2024-02-28T09:48:00;95681.59;;;14.94;94.26
20119;BME280;10220;42.716;23.306;2024-02-28T09:50:27;95697.88;;;15.31;89.72
20119;BME280;10220;42.716;23.306;2024-02-28T09:52:53;95678.44;;;15.27;88.00
20119;BME280;10220;42.716;23.306;2024-02-28T09:55:19;95683.91;;;15.55;84.71
20119;BME280;10220;42.716;23.306;2024-02-28T09:57:47;95675.75;;;15.52;84.18
20119;BME280;10220;42.716;23.306;2024-02-28T10:00:14;95667.00;;;15.28;84.28
20119;BME280;10220;42.716;23.306;2024-02-28T10:02:41;95691.41;;;15.52;81.35
20119;BME280;10220;42.716;23.306;2024-02-28T10:05:08;95673.94;;;15.34;79.67
20119;BME280;10220;42.716;23.306;2024-02-28T10:07:35;95671.09;;;15.36;84.95
20119;BME280;10220;42.716;23.306;2024-02-28T10:10:00;95663.34;;;15.29;86.56
20119;BME280;10220;42.716;23.306;2024-02-28T10:12:26;95688.03;;;15.33;88.21
20119;BME280;10220;42.716;23.306;2024-02-28T10:14:51;95669.94;;;15.32;89.12
20119;BME280;10220;42.716;23.306;2024-02-28T10:17:17;95667.94;;;15.63;85.69
20119;BME280;10220;42.716;23.306;2024-02-28T10:19:42;95673.75;;;15.65;84.35
20119;BME280;10220;42.716;23.306;2024-02-28T10:22:08;95634.63;;;15.29;84.01
20119;BME280;10220;42.716;23.306;2024-02-28T10:24:34;95658.25;;;15.52;82.59
20119;BME280;10220;42.716;23.306;2024-02-28T10:27:01;95667.69;;;15.18;84.99
20119;BME280;10220;42.716;23.306;2024-02-28T10:29:26;95656.97;;;15.26;83.51
20119;BME280;10220;42.716;23.306;2024-02-28T10:31:58;95644.97;;;15.25;83.65
20119;BME280;10220;42.716;23.306;2024-02-28T10:34:24;95652.72;;;15.60;82.77
20119;BME280;10220;42.716;23.306;2024-02-28T10:36:50;95635.66;;;15.87;78.79
20119;BME280;10220;42.716;23.306;2024-02-28T10:39:15;95647.50;;;15.89;79.76
20119;BME280;10220;42.716;23.306;2024-02-28T10:41:41;95649.28;;;15.89;78.93
20119;BME280;10220;42.716;23.306;2024-02-28T10:44:08;95639.34;;;16.20;76.57
20119;BME280;10220;42.716;23.306;2024-02-28T10:46:37;95622.00;;;16.37;72.65
20119;BME280;10220;42.716;23.306;2024-02-28T10:49:04;95632.91;;;16.80;70.27
20119;BME280;10220;42.716;23.306;2024-02-28T10:51:36;95599.31;;;17.00;65.91
20119;BME280;10220;42.716;23.306;2024-02-28T10:54:10;95623.22;;;17.42;64.36
20119;BME280;10220;42.716;23.306;2024-02-28T10:56:37;95628.34;;;16.98;62.19
20119;BME280;10220;42.716;23.306;2024-02-28T10:59:10;95624.53;;;17.17;61.52
20119;BME280;10220;42.716;23.306;2024-02-28T11:01:45;95620.94;;;16.95;61.21
20119;BME280;10220;42.716;23.306;2024-02-28T11:04:12;95628.56;;;17.08;61.21
20119;BME280;10220;42.716;23.306;2024-02-28T11:06:51;95619.19;;;17.23;59.97
20119;BME280;10220;42.716;23.306;2024-02-28T11:09:21;95607.72;;;17.13;60.17
20119;BME280;10220;42.716;23.306;2024-02-28T11:11:49;95590.38;;;17.35;58.75
20119;BME280;10220;42.716;23.306;2024-02-28T11:14:15;95609.31;;;17.53;58.36
20119;BME280;10220;42.716;23.306;2024-02-28T11:16:41;95605.34;;;17.67;58.55
20119;BME280;10220;42.716;23.306;2024-02-28T11:19:21;95588.78;;;17.78;56.16
20119;BME280;10220;42.716;23.306;2024-02-28T11:21:53;95588.84;;;17.66;56.84
20119;BME280;10220;42.716;23.306;2024-02-28T11:24:23;95581.00;;;17.99;58.23
20119;BME280;10220;42.716;23.306;2024-02-28T11:26:49;95579.84;;;18.07;55.48
20119;BME280;10220;42.716;23.306;2024-02-28T11:29:16;95577.03;;;17.80;56.12
20119;BME280;10220;42.716;23.306;2024-02-28T11:31:41;95580.63;;;17.91;54.96
20119;BME280;10220;42.716;23.306;2024-02-28T11:34:08;95574.72;;;17.84;53.32
20119;BME280;10220;42.716;23.306;2024-02-28T11:36:33;95561.69;;;17.89;54.37
20119;BME280;10220;42.716;23.306;2024-02-28T11:38:59;95561.16;;;17.87;54.87
20119;BME280;10220;42.716;23.306;2024-02-28T11:41:26;95567.72;;;18.55;54.26
20119;BME280;10220;42.716;23.306;2024-02-28T11:43:55;95553.06;;;18.75;54.04
20119;BME280;10220;42.716;23.306;2024-02-28T11:46:20;95570.94;;;18.24;54.31
20119;BME280;10220;42.716;23.306;2024-02-28T11:48:46;95561.28;;;17.64;55.34
20119;BME280;10220;42.716;23.306;2024-02-28T11:51:11;95568.03;;;17.60;57.50
20119;BME280;10220;42.716;23.306;2024-02-28T11:53:37;95557.56;;;17.76;56.51
20119;BME280;10220;42.716;23.306;2024-02-28T11:56:03;95567.53;;;17.63;57.17
20119;BME280;10220;42.716;23.306;2024-02-28T11:58:29;95556.06;;;17.80;57.76
20119;BME280;10220;42.716;23.306;2024-02-28T12:00:55;95554.69;;;17.94;57.85
20119;BME280;10220;42.716;23.306;2024-02-28T12:03:24;95566.00;;;18.11;58.31
20119;BME280;10220;42.716;23.306;2024-02-28T12:05:51;95555.38;;;18.18;55.31
20119;BME280;10220;42.716;23.306;2024-02-28T12:08:17;95554.50;;;17.96;54.00
20119;BME280;10220;42.716;23.306;2024-02-28T12:10:45;95535.00;;;17.92;53.92
20119;BME280;10220;42.716;23.306;2024-02-28T12:13:10;95520.69;;;17.99;53.43
20119;BME280;10220;42.716;23.306;2024-02-28T12:15:39;95533.84;;;17.83;54.33
20119;BME280;10220;42.716;23.306;2024-02-28T12:18:11;95529.28;;;17.78;54.50
20119;BME280;10220;42.716;23.306;2024-02-28T12:20:42;95488.94;;;17.63;55.72
20119;BME280;10220;42.716;23.306;2024-02-28T12:23:08;95485.91;;;17.71;56.02
20119;BME280;10220;42.716;23.306;2024-02-28T12:25:34;95504.34;;;17.60;56.86
20119;BME280;10220;42.716;23.306;2024-02-28T12:28:00;95506.88;;;17.71;56.63
20119;BME280;10220;42.716;23.306;2024-02-28T12:30:26;95514.69;;;17.99;55.28
20119;BME280;10220;42.716;23.306;2024-02-28T12:32:59;95505.63;;;17.90;55.92
20119;BME280;10220;42.716;23.306;2024-02-28T12:35:25;95524.44;;;18.03;56.29
20119;BME280;10220;42.716;23.306;2024-02-28T12:37:51;95520.22;;;18.02;56.44
20119;BME280;10220;42.716;23.306;2024-02-28T12:40:16;95485.91;;;17.87;56.10
20119;BME280;10220;42.716;23.306;2024-02-28T12:42:42;95489.00;;;18.01;56.32
20119;BME280;10220;42.716;23.306;2024-02-28T12:45:09;95503.41;;;17.82;56.27
20119;BME280;10220;42.716;23.306;2024-02-28T12:47:34;95490.03;;;17.83;57.21
20119;BME280;10220;42.716;23.306;2024-02-28T12:50:00;95485.91;;;17.87;56.57
20119;BME280;10220;42.716;23.306;2024-02-28T12:52:26;95512.59;;;17.68;58.80
20119;BME280;10220;42.716;23.306;2024-02-28T12:54:52;95518.41;;;17.70;59.83
20119;BME280;10220;42.716;23.306;2024-02-28T12:57:17;95503.06;;;17.46;59.86
20119;BME280;10220;42.716;23.306;2024-02-28T12:59:44;95507.44;;;17.73;60.97
20119;BME280;10220;42.716;23.306;2024-02-28T13:02:10;95513.66;;;18.00;60.16
20119;BME280;10220;42.716;23.306;2024-02-28T13:04:36;95493.78;;;17.71;60.20
20119;BME280;10220;42.716;23.306;2024-02-28T13:07:01;95512.44;;;17.74;60.38
20119;BME280;10220;42.716;23.306;2024-02-28T13:09:27;95500.47;;;17.62;60.69
20119;BME280;10220;42.716;23.306;2024-02-28T13:11:53;95504.41;;;17.81;60.85
20119;BME280;10220;42.716;23.306;2024-02-28T13:14:19;95515.78;;;17.70;61.68
20119;BME280;10220;42.716;23.306;2024-02-28T13:16:44;95511.50;;;17.80;61.12
20119;BME280;10220;42.716;23.306;2024-02-28T13:19:10;95515.13;;;17.63;62.58
20119;BME280;10220;42.716;23.306;2024-02-28T13:21:35;95510.44;;;17.49;63.09
20119;BME280;10220;42.716;23.306;2024-02-28T13:24:02;95513.94;;;17.38;63.88
20119;BME280;10220;42.716;23.306;2024-02-28T13:26:31;95505.78;;;17.51;64.24
20119;BME280;10220;42.716;23.306;2024-02-28T13:28:57;95513.88;;;17.65;62.80
20119;BME280;10220;42.716;23.306;2024-02-28T13:31:22;95518.00;;;17.45;63.47
20119;BME280;10220;42.716;23.306;2024-02-28T13:33:48;95502.88;;;17.36;63.79
20119;BME280;10220;42.716;23.306;2024-02-28T13:36:14;95515.03;;;17.42;63.48
20119;BME280;10220;42.716;23.306;2024-02-28T13:38:39;95515.25;;;17.24;64.29
20119;BME280;10220;42.716;23.306;2024-02-28T13:41:05;95503.13;;;17.23;64.02
20119;BME280;10220;42.716;23.306;2024-02-28T13:43:31;95514.03;;;17.43;63.61
20119;BME280;10220;42.716;23.306;2024-02-28T13:45:56;95490.09;;;17.39;62.84
20119;BME280;10220;42.716;23.306;2024-02-28T13:48:26;95505.47;;;17.64;63.42
20119;BME280;10220;42.716;23.306;2024-02-28T13:50:54;95512.69;;;17.73;62.20
20119;BME280;10220;42.716;23.306;2024-02-28T13:53:19;95503.28;;;17.61;61.58
20119;BME280;10220;42.716;23.306;2024-02-28T13:55:45;95501.50;;;17.61;61.47
20119;BME280;10220;42.716;23.306;2024-02-28T13:58:11;95506.25;;;17.64;61.58
20119;BME280;10220;42.716;23.306;2024-02-28T14:00:38;95501.47;;;17.77;60.49
20119;BME280;10220;42.716;23.306;2024-02-28T14:03:05;95505.56;;;17.68;60.35
20119;BME280;10220;42.716;23.306;2024-02-28T14:05:32;95505.91;;;17.61;60.24
20119;BME280;10220;42.716;23.306;2024-02-28T14:07:57;95503.09;;;17.62;60.76
20119;BME280;10220;42.716;23.306;2024-02-28T14:10:24;95500.13;;;17.59;61.45
20119;BME280;10220;42.716;23.306;2024-02-28T14:12:49;95498.94;;;17.50;61.18
20119;BME280;10220;42.716;23.306;2024-02-28T14:15:20;95503.44;;;17.38;61.46
20119;BME280;10220;42.716;23.306;2024-02-28T14:17:46;95502.19;;;17.57;59.91
20119;BME280;10220;42.716;23.306;2024-02-28T14:20:30;95511.09;;;17.56;60.57
20119;BME280;10220;42.716;23.306;2024-02-28T14:22:56;95503.53;;;17.59;60.70